Time;durP1;ratioP1;P1;durP2;ratioP2;P2;SDS_P1;SDS_P2;PMS_P1;PMS_P2;Temp;Humidity;BMP_temperature;BMP_pressure;BME280_temperature;BME280_humidity;BME280_pressure;Samples;Min_cycle;Max_cycle;Signal;HPM_P1;HPM_P2
2022/12/02 00:00:28;;;;;;;;;;;;;;;13.92;70.74;102379.31;1256387;23;672;-74
2022/12/02 00:01:19;;;;;;;;;;;;;;;13.92;71.23;102376.66;1254466;23;634;-74
2022/12/02 00:02:09;;;;;;;;;;;;;;;13.89;71.42;102369.63;1261033;23;653;-74
2022/12/02 00:03:00;;;;;;;;;;;;;;;13.90;70.73;102366.00;1261167;23;649;-74
2022/12/02 00:03:50;;;;;;;;;;;;;;;13.90;70.79;102371.38;1261102;23;634;-74
2022/12/02 00:04:41;;;;;;;;;;;;;;;13.89;71.13;102367.81;1261210;23;642;-74
2022/12/02 00:05:31;;;;;;;;;;;;;;;13.91;70.82;102367.75;1262178;23;653;-75
2022/12/02 00:06:21;;;;;;;;;;;;;;;13.91;70.87;102362.38;1261310;23;669;-74
2022/12/02 00:07:12;;;;;;;;;;;;;;;13.90;70.73;102366.00;1261250;23;599;-75
2022/12/02 00:08:02;;;;;;;;;;;;;;;13.91;71.17;102367.75;1261187;23;555;-74
2022/12/02 00:08:53;;;;;;;;;;;;;;;13.91;71.04;102370.41;1261944;23;622;-74
2022/12/02 00:09:43;;;;;;;;;;;;;;;13.89;71.20;102370.50;1261301;23;639;-74
2022/12/02 00:10:33;;;;;;;;;;;;;;;13.89;71.10;102365.13;1261251;23;657;-75
2022/12/02 00:11:24;;;;;;;;;;;;;;;13.90;70.67;102366.00;1261159;23;598;-74
2022/12/02 00:12:14;;;;;;;;;;;;;;;13.89;71.41;102361.59;1261257;23;661;-74
2022/12/02 00:13:05;;;;;;;;;;;;;;;13.89;70.71;102365.13;1261263;23;587;-75
2022/12/02 00:13:55;;;;;;;;;;;;;;;13.90;71.13;102368.69;1261219;23;608;-74
2022/12/02 00:14:46;;;;;;;;;;;;;;;13.89;71.29;102369.63;1261956;23;652;-74
2022/12/02 00:15:36;;;;;;;;;;;;;;;13.88;71.14;102373.25;1260638;23;650;-75
2022/12/02 00:16:26;;;;;;;;;;;;;;;13.87;70.79;102367.03;1261038;23;629;-74
2022/12/02 00:17:17;;;;;;;;;;;;;;;13.88;70.55;102368.78;1261222;23;634;-74
2022/12/02 00:18:08;;;;;;;;;;;;;;;13.88;70.88;102373.25;1261087;23;610;-74
2022/12/02 00:18:58;;;;;;;;;;;;;;;13.87;70.99;102366.16;1261263;23;626;-74
2022/12/02 00:19:49;;;;;;;;;;;;;;;13.88;71.24;102367.91;1262120;23;606;-74
2022/12/02 00:20:39;;;;;;;;;;;;;;;13.87;70.94;102372.41;1261210;23;657;-74
2022/12/02 00:21:29;;;;;;;;;;;;;;;13.87;70.83;102368.84;1261235;23;602;-75
2022/12/02 00:22:20;;;;;;;;;;;;;;;13.87;71.39;102374.22;1262112;23;618;-74
2022/12/02 00:23:10;;;;;;;;;;;;;;;13.87;70.85;102377.75;1262051;23;598;-74
2022/12/02 00:24:01;;;;;;;;;;;;;;;13.86;70.86;102378.69;1262068;23;533;-74
2022/12/02 00:24:51;;;;;;;;;;;;;;;13.87;71.41;102372.41;1261309;23;654;-74
2022/12/02 00:25:41;;;;;;;;;;;;;;;13.88;71.21;102370.59;1261963;23;681;-74
2022/12/02 00:26:32;;;;;;;;;;;;;;;13.87;70.71;102371.53;1261174;23;634;-74
2022/12/02 00:27:22;;;;;;;;;;;;;;;13.84;70.90;102367.19;1256629;23;654;-74
2022/12/02 00:28:13;;;;;;;;;;;;;;;13.81;71.41;102367.34;1255011;23;602;-74
2022/12/02 00:29:03;;;;;;;;;;;;;;;13.84;71.54;102366.31;1261150;23;1041;-73
2022/12/02 00:29:53;;;;;;;;;;;;;;;13.83;71.34;102364.59;1261154;23;648;-73
2022/12/02 00:30:44;;;;;;;;;;;;;;;13.83;71.42;102369.97;1262012;23;622;-73
2022/12/02 00:31:34;;;;;;;;;;;;;;;13.82;71.28;102369.09;1261164;23;662;-73
2022/12/02 00:32:25;;;;;;;;;;;;;;;13.84;71.03;102367.19;1261142;23;606;-73
2022/12/02 00:33:17;;;;;;;;;;;;;;;13.84;71.41;102369.00;1261081;23;662;-74
2022/12/02 00:34:07;;;;;;;;;;;;;;;13.85;71.64;102368.06;1261077;23;666;-73
2022/12/02 00:34:57;;;;;;;;;;;;;;;13.82;71.05;102362.88;1261154;23;634;-73
2022/12/02 00:35:48;;;;;;;;;;;;;;;13.81;70.97;102362.00;1261226;23;664;-73
2022/12/02 00:36:38;;;;;;;;;;;;;;;13.82;71.12;102360.19;1261147;23;653;-74
2022/12/02 00:37:29;;;;;;;;;;;;;;;13.80;71.13;102365.63;1261086;23;631;-73
2022/12/02 00:38:19;;;;;;;;;;;;;;;13.79;71.70;102365.75;1261134;23;617;-73
2022/12/02 00:39:09;;;;;;;;;;;;;;;13.79;71.48;102360.38;1261267;23;672;-74
2022/12/02 00:40:00;;;;;;;;;;;;;;;13.81;71.68;102364.69;1261135;23;641;-73
2022/12/02 00:40:50;;;;;;;;;;;;;;;13.84;70.86;102352.94;1261217;23;632;-74
2022/12/02 00:41:41;;;;;;;;;;;;;;;13.83;71.10;102360.09;1261085;23;629;-74
2022/12/02 00:42:31;;;;;;;;;;;;;;;13.80;71.13;102354.03;1261239;23;665;-74
2022/12/02 00:46:49;;;;;;;;;;;;;;;13.81;71.10;102351.28;1261895;23;645;-73
2022/12/02 00:47:40;;;;;;;;;;;;;;;13.83;71.15;102352.06;1261116;23;634;-73
2022/12/02 00:48:30;;;;;;;;;;;;;;;13.79;71.71;102347.81;1260968;23;633;-73
2022/12/02 00:49:21;;;;;;;;;;;;;;;13.78;71.02;102350.59;1261145;23;676;-74
2022/12/02 00:50:11;;;;;;;;;;;;;;;13.80;71.44;102348.69;1261097;23;621;-75
2022/12/02 00:51:01;;;;;;;;;;;;;;;13.79;70.95;102349.66;1261937;23;625;-75
2022/12/02 00:51:52;;;;;;;;;;;;;;;13.81;70.90;102345.06;1261242;23;622;-76
2022/12/02 00:52:42;;;;;;;;;;;;;;;13.80;70.94;102349.53;1261158;23;622;-74
2022/12/02 00:53:33;;;;;;;;;;;;;;;13.81;70.89;102345.91;1261126;23;594;-74
2022/12/02 00:54:23;;;;;;;;;;;;;;;13.82;71.58;102346.78;1261089;23;678;-74
2022/12/02 00:55:14;;;;;;;;;;;;;;;13.81;70.81;102343.25;1261987;23;661;-74
2022/12/02 00:56:04;;;;;;;;;;;;;;;13.83;70.75;102337.81;1261119;23;616;-74
2022/12/02 00:56:54;;;;;;;;;;;;;;;13.83;71.12;102335.13;1262032;23;735;-74
2022/12/02 00:57:45;;;;;;;;;;;;;;;13.81;71.45;102337.00;1261146;23;595;-74
2022/12/02 00:58:35;;;;;;;;;;;;;;;13.80;70.83;102336.16;1256471;23;1947;-74
2022/12/02 00:59:26;;;;;;;;;;;;;;;13.81;71.49;102337.00;1254164;23;611;-76
2022/12/02 01:00:16;;;;;;;;;;;;;;;13.81;70.92;102334.34;1261085;23;610;-76
2022/12/02 01:01:06;;;;;;;;;;;;;;;13.82;70.83;102333.38;1261927;23;593;-76
2022/12/02 01:01:57;;;;;;;;;;;;;;;13.83;71.04;102337.81;1260980;23;625;-76
2022/12/02 01:02:47;;;;;;;;;;;;;;;13.81;70.78;102332.53;1261078;23;645;-75
2022/12/02 01:03:38;;;;;;;;;;;;;;;13.82;70.65;102334.25;1262169;23;621;-75
2022/12/02 01:04:28;;;;;;;;;;;;;;;13.79;71.24;102331.75;1261149;23;653;-76
2022/12/02 01:05:19;;;;;;;;;;;;;;;13.80;71.20;102332.59;1261072;23;613;-76
2022/12/02 01:06:09;;;;;;;;;;;;;;;13.79;71.20;102330.91;1262033;23;659;-76
2022/12/02 01:06:59;;;;;;;;;;;;;;;13.78;71.42;102335.41;1261212;23;641;-76
2022/12/02 01:07:50;;;;;;;;;;;;;;;13.79;71.07;102336.25;1261147;23;654;-76
2022/12/02 01:08:40;;;;;;;;;;;;;;;13.79;71.52;102336.25;1261180;23;578;-76
2022/12/02 01:09:31;;;;;;;;;;;;;;;13.80;71.31;102337.97;1262015;23;628;-75
2022/12/02 01:10:21;;;;;;;;;;;;;;;13.80;70.99;102340.63;1261027;23;638;-75
2022/12/02 01:11:12;;;;;;;;;;;;;;;13.77;71.38;102340.84;1261292;23;646;-75
2022/12/02 01:12:02;;;;;;;;;;;;;;;13.77;71.01;102339.03;1261230;23;670;-74
2022/12/02 01:12:53;;;;;;;;;;;;;;;13.78;70.69;102345.25;1261117;23;741;-74
2022/12/02 01:13:43;;;;;;;;;;;;;;;13.76;70.86;102341.78;1260537;23;646;-74
2022/12/02 01:14:34;;;;;;;;;;;;;;;13.76;71.16;102336.44;1261208;23;941;-74
2022/12/02 01:15:24;;;;;;;;;;;;;;;13.77;70.81;102341.72;1261219;23;642;-74
2022/12/02 01:16:14;;;;;;;;;;;;;;;13.77;70.51;102340.84;1261212;23;658;-74
2022/12/02 01:17:05;;;;;;;;;;;;;;;13.77;70.78;102340.84;1261101;23;623;-73
2022/12/02 01:17:55;;;;;;;;;;;;;;;13.77;71.01;102343.50;1261996;23;633;-74
2022/12/02 01:18:46;;;;;;;;;;;;;;;13.78;70.87;102342.56;1260991;23;1885;-74
2022/12/02 01:19:36;;;;;;;;;;;;;;;13.78;70.71;102340.75;1261206;23;611;-74
2022/12/02 01:20:27;;;;;;;;;;;;;;;13.77;70.70;102340.84;1261257;23;618;-74
2022/12/02 01:21:17;;;;;;;;;;;;;;;13.76;70.83;102342.66;1261141;23;653;-74
2022/12/02 01:22:07;;;;;;;;;;;;;;;13.75;70.88;102340.91;1261157;23;602;-74
2022/12/02 01:22:58;;;;;;;;;;;;;;;13.76;70.79;102341.78;1260999;23;657;-74
2022/12/02 01:23:48;;;;;;;;;;;;;;;13.76;70.80;102339.09;1261173;23;618;-74
2022/12/02 01:24:39;;;;;;;;;;;;;;;13.75;70.92;102340.91;1261911;23;621;-74
2022/12/02 01:25:29;;;;;;;;;;;;;;;13.75;71.33;102335.56;1262071;23;601;-74
2022/12/02 01:26:19;;;;;;;;;;;;;;;13.75;71.52;102330.19;1261892;23;672;-74
2022/12/02 01:27:10;;;;;;;;;;;;;;;13.74;70.74;102341.88;1261106;23;684;-74
2022/12/02 01:28:00;;;;;;;;;;;;;;;13.75;71.36;102334.69;1260600;23;673;-74
2022/12/02 01:28:51;;;;;;;;;;;;;;;13.76;70.71;102336.44;1262049;23;626;-74
2022/12/02 01:29:41;;;;;;;;;;;;;;;13.76;70.76;102339.09;1261326;23;630;-74
2022/12/02 01:30:32;;;;;;;;;;;;;;;13.75;71.33;102340.06;1261411;23;642;-74
2022/12/02 01:31:22;;;;;;;;;;;;;;;13.74;71.22;102344.53;1261497;23;657;-74
2022/12/02 01:32:12;;;;;;;;;;;;;;;13.74;70.60;102338.31;1256899;23;661;-74
2022/12/02 01:33:03;;;;;;;;;;;;;;;13.71;71.14;102334.00;1255252;23;645;-74
2022/12/02 01:33:53;;;;;;;;;;;;;;;13.74;71.54;102330.28;1261372;23;648;-74
2022/12/02 01:34:44;;;;;;;;;;;;;;;13.72;71.15;102341.09;1262396;23;637;-74
2022/12/02 01:35:34;;;;;;;;;;;;;;;13.72;71.68;102340.22;1261550;23;639;-73
2022/12/02 01:36:24;;;;;;;;;;;;;;;13.71;71.58;102339.34;1261682;23;642;-74
2022/12/02 01:37:15;;;;;;;;;;;;;;;13.72;71.25;102345.56;1262534;23;602;-74
2022/12/02 01:38:05;;;;;;;;;;;;;;;13.72;71.47;102338.41;1261642;23;654;-75
2022/12/02 01:38:56;;;;;;;;;;;;;;;13.74;71.59;102343.69;1261643;23;657;-75
2022/12/02 01:39:46;;;;;;;;;;;;;;;13.75;71.20;102334.69;1261472;23;646;-74
2022/12/02 01:40:36;;;;;;;;;;;;;;;13.75;71.02;102340.06;1261486;23;655;-73
2022/12/02 01:41:27;;;;;;;;;;;;;;;13.75;71.04;102334.69;1262428;23;700;-73
2022/12/02 01:42:17;;;;;;;;;;;;;;;13.74;70.87;102336.50;1261591;23;654;-74
2022/12/02 01:43:08;;;;;;;;;;;;;;;13.75;71.07;102329.34;1261549;23;630;-73
2022/12/02 01:43:58;;;;;;;;;;;;;;;13.73;71.37;102328.56;1262442;23;640;-74
2022/12/02 01:44:49;;;;;;;;;;;;;;;13.72;70.87;102334.84;1261572;23;653;-73
2022/12/02 01:45:39;;;;;;;;;;;;;;;13.72;70.73;102332.19;1261586;23;590;-73
2022/12/02 01:46:29;;;;;;;;;;;;;;;13.72;70.92;102333.03;1261532;23;647;-74
2022/12/02 01:47:20;;;;;;;;;;;;;;;13.72;71.39;102334.84;1261611;23;626;-74
2022/12/02 01:48:10;;;;;;;;;;;;;;;13.72;71.14;102340.22;1262397;23;799;-74
2022/12/02 01:49:01;;;;;;;;;;;;;;;13.72;70.78;102343.75;1262122;23;1248;-74
2022/12/02 01:49:51;;;;;;;;;;;;;;;13.73;71.03;102336.59;1261503;23;611;-74
2022/12/02 01:50:41;;;;;;;;;;;;;;;13.74;70.90;102349.03;1256827;23;766;-75
2022/12/02 01:51:32;;;;;;;;;;;;;;;13.74;70.96;102346.34;1255326;23;747;-74
2022/12/02 01:52:22;;;;;;;;;;;;;;;13.72;71.33;102345.56;1261369;23;641;-74
2022/12/02 01:53:13;;;;;;;;;;;;;;;13.71;70.80;102350.06;1261499;23;598;-74
2022/12/02 01:54:03;;;;;;;;;;;;;;;13.72;71.25;102345.56;1262354;23;610;-74
2022/12/02 01:54:54;;;;;;;;;;;;;;;13.70;71.47;102342.09;1261560;23;598;-73
2022/12/02 01:55:44;;;;;;;;;;;;;;;13.68;71.31;102341.31;1261568;23;618;-74
2022/12/02 01:56:34;;;;;;;;;;;;;;;13.68;71.04;102344.88;1261584;23;649;-74
2022/12/02 01:57:25;;;;;;;;;;;;;;;13.72;70.88;102350.94;1260911;23;690;-74
2022/12/02 01:58:16;;;;;;;;;;;;;;;13.71;70.94;102352.75;1260120;23;646;-74
2022/12/02 01:59:06;;;;;;;;;;;;;;;13.71;71.30;102355.41;1261461;23;649;-74
2022/12/02 01:59:57;;;;;;;;;;;;;;;13.71;70.96;102344.69;1261553;23;649;-73
2022/12/02 02:00:47;;;;;;;;;;;;;;;13.72;71.32;102353.59;1261517;23;654;-73
2022/12/02 02:01:38;;;;;;;;;;;;;;;13.71;71.21;102354.56;1261507;23;654;-74
2022/12/02 02:02:29;;;;;;;;;;;;;;;13.71;70.99;102354.56;1261419;23;669;-74
2022/12/02 02:03:19;;;;;;;;;;;;;;;13.69;70.96;102346.59;1261371;23;634;-74
2022/12/02 02:04:10;;;;;;;;;;;;;;;13.70;70.88;102348.31;1262432;23;617;-74
2022/12/02 02:05:00;;;;;;;;;;;;;;;13.69;70.95;102343.06;1261452;23;713;-74
2022/12/02 02:05:50;;;;;;;;;;;;;;;13.71;71.04;102351.88;1261423;23;640;-73
2022/12/02 02:06:41;;;;;;;;;;;;;;;13.69;71.70;102343.91;1261450;23;715;-74
2022/12/02 02:07:31;;;;;;;;;;;;;;;13.70;71.05;102347.47;1261444;23;626;-73
2022/12/02 02:08:22;;;;;;;;;;;;;;;13.69;71.24;102343.06;1262294;23;661;-73
2022/12/02 02:09:12;;;;;;;;;;;;;;;13.68;71.29;102335.97;1261518;23;611;-74
2022/12/02 02:10:02;;;;;;;;;;;;;;;13.69;71.15;102338.56;1261484;23;678;-73
2022/12/02 02:10:53;;;;;;;;;;;;;;;13.70;71.32;102336.75;1261520;23;602;-74
2022/12/02 02:11:43;;;;;;;;;;;;;;;13.69;71.21;102335.88;1260891;23;614;-73
2022/12/02 02:12:34;;;;;;;;;;;;;;;13.69;71.00;102335.00;1262325;23;598;-74
2022/12/02 02:13:24;;;;;;;;;;;;;;;13.69;71.34;102335.00;1262210;23;612;-74
2022/12/02 02:14:15;;;;;;;;;;;;;;;13.71;71.60;102333.13;1261511;23;634;-74
2022/12/02 02:15:05;;;;;;;;;;;;;;;13.70;71.27;102339.44;1261477;23;660;-73
2022/12/02 02:15:55;;;;;;;;;;;;;;;13.70;70.87;102334.06;1261459;23;658;-74
2022/12/02 02:16:46;;;;;;;;;;;;;;;13.70;71.24;102329.56;1261441;23;742;-73
2022/12/02 02:17:36;;;;;;;;;;;;;;;13.69;71.42;102326.97;1261434;23;699;-73
2022/12/02 02:18:27;;;;;;;;;;;;;;;13.67;71.03;102331.56;1261404;23;588;-73
2022/12/02 02:19:17;;;;;;;;;;;;;;;13.68;70.96;102335.97;1261479;23;646;-73
2022/12/02 02:20:08;;;;;;;;;;;;;;;13.68;70.91;102328.78;1262240;23;634;-73
2022/12/02 02:20:58;;;;;;;;;;;;;;;13.69;70.63;102337.69;1261433;23;626;-73
2022/12/02 02:21:48;;;;;;;;;;;;;;;13.69;70.93;102329.66;1261464;23;661;-73
2022/12/02 02:22:39;;;;;;;;;;;;;;;13.68;70.76;102327.94;1261417;23;642;-73
2022/12/02 02:23:29;;;;;;;;;;;;;;;13.67;71.21;102335.09;1261460;23;630;-73
2022/12/02 02:24:20;;;;;;;;;;;;;;;13.65;70.81;102328.94;1261384;23;613;-75
2022/12/02 02:25:10;;;;;;;;;;;;;;;13.66;71.38;102330.69;1261413;23;602;-74
2022/12/02 02:26:01;;;;;;;;;;;;;;;13.66;71.29;102329.81;1260799;23;587;-75
2022/12/02 02:26:51;;;;;;;;;;;;;;;13.67;71.33;102332.41;1261485;23;634;-75
2022/12/02 02:27:42;;;;;;;;;;;;;;;13.66;71.65;102327.13;1261363;23;650;-75
2022/12/02 02:28:32;;;;;;;;;;;;;;;13.67;71.42;102334.22;1261565;23;639;-75
2022/12/02 02:29:22;;;;;;;;;;;;;;;13.65;71.59;102333.44;1261448;23;654;-76
2022/12/02 02:30:13;;;;;;;;;;;;;;;13.65;71.45;102333.44;1261504;23;590;-75
2022/12/02 02:31:03;;;;;;;;;;;;;;;13.64;70.72;102335.25;1261464;23;641;-75
2022/12/02 02:31:54;;;;;;;;;;;;;;;13.65;70.87;102328.09;1261484;23;660;-75
2022/12/02 02:32:44;;;;;;;;;;;;;;;13.64;70.85;102321.00;1261421;23;651;-75
2022/12/02 02:33:35;;;;;;;;;;;;;;;13.64;71.50;102321.88;1261436;23;616;-75
2022/12/02 02:34:26;;;;;;;;;;;;;;;13.64;71.16;102327.22;1261561;23;908;-75
2022/12/02 02:35:16;;;;;;;;;;;;;;;13.63;70.86;102319.25;1261476;23;610;-75
2022/12/02 02:36:07;;;;;;;;;;;;;;;13.64;70.87;102313.81;1262289;23;641;-75
2022/12/02 02:36:57;;;;;;;;;;;;;;;13.65;71.38;102314.69;1261459;23;634;-74
2022/12/02 02:37:47;;;;;;;;;;;;;;;13.65;71.20;102312.00;1261360;23;633;-75
2022/12/02 02:38:38;;;;;;;;;;;;;;;13.63;71.27;102319.25;1262007;23;1893;-74
2022/12/02 02:39:28;;;;;;;;;;;;;;;13.62;71.08;102307.69;1256942;23;605;-75
2022/12/02 02:40:19;;;;;;;;;;;;;;;13.63;71.19;102305.88;1249157;23;669;-74
2022/12/02 02:41:09;;;;;;;;;;;;;;;13.63;71.16;102303.19;1254071;23;614;-74
2022/12/02 02:41:59;;;;;;;;;;;;;;;13.63;71.05;102303.19;1259649;23;657;-74
2022/12/02 02:42:50;;;;;;;;;;;;;;;13.60;70.68;102306.94;1261349;23;657;-74
2022/12/02 02:43:40;;;;;;;;;;;;;;;13.61;71.16;102305.97;1261506;23;643;-74
2022/12/02 02:44:31;;;;;;;;;;;;;;;13.61;70.90;102305.97;1261356;23;661;-74
2022/12/02 02:45:21;;;;;;;;;;;;;;;13.62;70.75;102304.13;1261419;23;646;-74
2022/12/02 02:46:12;;;;;;;;;;;;;;;13.63;71.42;102311.22;1262254;23;652;-74
2022/12/02 02:47:02;;;;;;;;;;;;;;;13.64;70.80;102310.28;1261297;23;645;-75
2022/12/02 02:47:52;;;;;;;;;;;;;;;13.61;70.90;102307.78;1261484;23;662;-74
2022/12/02 02:48:43;;;;;;;;;;;;;;;13.58;70.77;102322.22;1261482;23;605;-74
2022/12/02 02:49:33;;;;;;;;;;;;;;;13.59;71.27;102320.41;1261330;23;648;-74
2022/12/02 02:50:24;;;;;;;;;;;;;;;13.62;71.10;102314.84;1261286;23;668;-74
2022/12/02 02:51:14;;;;;;;;;;;;;;;13.61;71.64;102316.69;1262376;23;598;-74
2022/12/02 02:52:05;;;;;;;;;;;;;;;13.59;70.99;102312.38;1261445;23;645;-74
2022/12/02 02:52:55;;;;;;;;;;;;;;;13.60;71.13;102314.97;1261404;23;622;-74
2022/12/02 02:53:45;;;;;;;;;;;;;;;13.59;71.37;102301.66;1261386;23;795;-74
2022/12/02 02:54:36;;;;;;;;;;;;;;;13.60;71.24;102300.72;1261366;23;606;-74
2022/12/02 02:55:26;;;;;;;;;;;;;;;13.59;71.45;102304.34;1260788;23;626;-74
2022/12/02 02:56:17;;;;;;;;;;;;;;;13.61;71.62;102300.63;1261443;23;642;-74
2022/12/02 02:57:07;;;;;;;;;;;;;;;13.62;71.25;102307.69;1261412;23;622;-75
2022/12/02 02:57:58;;;;;;;;;;;;;;;13.61;71.57;102300.63;1261433;23;649;-75
2022/12/02 02:58:48;;;;;;;;;;;;;;;13.61;71.60;102294.41;1256792;23;1901;-75
2022/12/02 02:59:39;;;;;;;;;;;;;;;13.61;70.76;102294.41;1255133;23;669;-74
2022/12/02 03:00:29;;;;;;;;;;;;;;;13.63;70.91;102295.16;1261376;23;693;-75
2022/12/02 03:01:19;;;;;;;;;;;;;;;13.62;71.26;102291.59;1261313;23;649;-74
2022/12/02 03:02:10;;;;;;;;;;;;;;;13.62;70.96;102286.25;1261977;23;596;-75
2022/12/02 03:03:00;;;;;;;;;;;;;;;13.59;70.83;102282.91;1262188;23;614;-74
2022/12/02 03:03:51;;;;;;;;;;;;;;;13.60;71.59;102281.97;1261332;23;634;-74
2022/12/02 03:04:41;;;;;;;;;;;;;;;13.60;71.33;102284.63;1262253;23;581;-74
2022/12/02 03:05:31;;;;;;;;;;;;;;;13.62;71.41;102280.91;1261327;23;661;-73
2022/12/02 03:06:22;;;;;;;;;;;;;;;13.62;71.04;102280.91;1261335;23;743;-74
2022/12/02 03:07:12;;;;;;;;;;;;;;;13.61;71.52;102279.19;1261332;23;619;-73
2022/12/02 03:08:03;;;;;;;;;;;;;;;13.60;70.76;102272.09;1262187;23;661;-73
2022/12/02 03:08:53;;;;;;;;;;;;;;;13.61;70.73;102272.97;1262262;23;594;-74
2022/12/02 03:09:44;;;;;;;;;;;;;;;13.61;70.80;102270.28;1256085;23;634;-74
2022/12/02 03:10:34;;;;;;;;;;;;;;;13.60;71.40;102271.25;1254996;23;642;-74
2022/12/02 03:11:24;;;;;;;;;;;;;;;13.59;70.69;102274.88;1262162;23;771;-74
2022/12/02 03:12:15;;;;;;;;;;;;;;;13.58;71.55;102276.69;1261372;23;624;-74
2022/12/02 03:13:05;;;;;;;;;;;;;;;13.59;71.04;102264.16;1261426;23;643;-74
2022/12/02 03:13:56;;;;;;;;;;;;;;;13.59;70.64;102258.78;1261342;23;694;-74
2022/12/02 03:14:46;;;;;;;;;;;;;;;13.57;70.66;102260.69;1261384;23;654;-74
2022/12/02 03:15:37;;;;;;;;;;;;;;;13.59;71.44;102265.03;1261332;23;610;-74
2022/12/02 03:16:27;;;;;;;;;;;;;;;13.61;71.64;102264.94;1261311;23;654;-74
2022/12/02 03:17:17;;;;;;;;;;;;;;;13.59;71.29;102264.16;1261360;23;614;-74
2022/12/02 03:18:08;;;;;;;;;;;;;;;13.60;70.74;102268.56;1261367;23;623;-73
2022/12/02 03:18:58;;;;;;;;;;;;;;;13.60;70.79;102266.75;1261218;23;1877;-73
2022/12/02 03:19:49;;;;;;;;;;;;;;;13.60;71.17;102266.75;1261281;23;647;-73
2022/12/02 03:20:39;;;;;;;;;;;;;;;13.59;71.39;102274.88;1261260;23;894;-73
2022/12/02 03:21:32;;;;;;;;;;;;;;;13.60;71.57;102276.59;1261362;23;637;-72
2022/12/02 03:22:22;;;;;;;;;;;;;;;13.59;71.64;102277.53;1255888;23;653;-73
2022/12/02 03:23:13;;;;;;;;;;;;;;;13.59;71.44;102285.59;1255050;23;672;-73
2022/12/02 03:24:03;;;;;;;;;;;;;;;13.58;70.78;102287.41;1260726;23;610;-73
2022/12/02 03:24:53;;;;;;;;;;;;;;;13.58;71.02;102284.72;1261260;23;652;-72
2022/12/02 03:25:44;;;;;;;;;;;;;;;13.58;71.38;102289.22;1262137;23;649;-73
2022/12/02 03:26:34;;;;;;;;;;;;;;;13.58;71.08;102289.22;1261331;23;618;-72
2022/12/02 03:27:25;;;;;;;;;;;;;;;13.57;70.93;102287.47;1261447;23;646;-72
2022/12/02 03:28:15;;;;;;;;;;;;;;;13.59;71.38;102282.91;1261311;23;713;-72
2022/12/02 03:29:06;;;;;;;;;;;;;;;13.59;71.42;102281.09;1262188;23;661;-72
2022/12/02 03:29:56;;;;;;;;;;;;;;;13.58;70.94;102281.16;1262107;23;630;-72
2022/12/02 03:30:47;;;;;;;;;;;;;;;13.55;71.05;102274.16;1261391;23;628;-72
2022/12/02 03:31:37;;;;;;;;;;;;;;;13.55;71.25;102274.16;1261235;23;732;-72
2022/12/02 03:32:28;;;;;;;;;;;;;;;13.57;71.36;102274.09;1261326;23;661;-72
2022/12/02 03:33:18;;;;;;;;;;;;;;;13.55;71.02;102275.03;1261242;23;641;-72
2022/12/02 03:34:08;;;;;;;;;;;;;;;13.54;71.27;102273.31;1261257;23;614;-72
2022/12/02 03:34:59;;;;;;;;;;;;;;;13.55;70.98;102274.16;1261322;23;626;-72
2022/12/02 03:35:49;;;;;;;;;;;;;;;13.57;70.87;102276.75;1261411;23;693;-73
2022/12/02 03:36:40;;;;;;;;;;;;;;;13.55;70.92;102275.03;1261253;23;665;-72
2022/12/02 03:37:30;;;;;;;;;;;;;;;13.57;71.30;102274.94;1261156;23;642;-72
2022/12/02 03:38:21;;;;;;;;;;;;;;;13.57;70.85;102276.75;1261241;23;624;-72
2022/12/02 03:39:11;;;;;;;;;;;;;;;13.58;71.20;102273.13;1261300;23;684;-72
2022/12/02 03:40:02;;;;;;;;;;;;;;;13.54;71.24;102272.44;1262296;23;625;-72
2022/12/02 03:40:52;;;;;;;;;;;;;;;13.54;71.58;102275.09;1261190;23;635;-72
2022/12/02 03:41:42;;;;;;;;;;;;;;;13.54;70.83;102281.34;1261290;23;637;-72
2022/12/02 03:42:33;;;;;;;;;;;;;;;13.54;71.51;102277.78;1262000;23;685;-72
2022/12/02 03:43:23;;;;;;;;;;;;;;;13.56;71.53;102275.91;1262267;23;639;-72
2022/12/02 03:44:14;;;;;;;;;;;;;;;13.53;71.50;102274.25;1261222;23;637;-73
2022/12/02 03:45:04;;;;;;;;;;;;;;;13.54;70.67;102267.94;1261272;23;748;-73
2022/12/02 03:45:55;;;;;;;;;;;;;;;13.55;70.63;102269.69;1261145;23;942;-72
2022/12/02 03:46:46;;;;;;;;;;;;;;;13.53;71.06;102266.22;1261288;23;610;-72
2022/12/02 03:47:37;;;;;;;;;;;;;;;13.55;70.85;102272.34;1261296;23;551;-73
2022/12/02 03:48:27;;;;;;;;;;;;;;;13.54;71.28;102275.09;1261240;23;646;-72
2022/12/02 03:49:18;;;;;;;;;;;;;;;13.53;71.10;102266.22;1261310;23;603;-72
2022/12/02 03:50:08;;;;;;;;;;;;;;;13.53;71.09;102271.56;1261246;23;632;-72
2022/12/02 03:50:59;;;;;;;;;;;;;;;13.53;70.74;102276.91;1261083;23;701;-72
2022/12/02 03:51:49;;;;;;;;;;;;;;;13.51;71.17;102268.09;1261271;23;780;-72
2022/12/02 03:52:39;;;;;;;;;;;;;;;13.50;71.46;102271.72;1261187;23;644;-72
2022/12/02 03:53:30;;;;;;;;;;;;;;;13.50;71.38;102279.75;1261095;23;626;-73
2022/12/02 03:54:21;;;;;;;;;;;;;;;13.50;71.47;102277.09;1261247;23;649;-74
2022/12/02 03:55:11;;;;;;;;;;;;;;;13.52;71.49;102282.38;1261358;23;760;-74
2022/12/02 03:56:01;;;;;;;;;;;;;;;13.50;70.71;102282.44;1261989;23;685;-74
2022/12/02 03:56:52;;;;;;;;;;;;;;;13.52;71.51;102277.88;1261312;23;573;-73
2022/12/02 03:57:42;;;;;;;;;;;;;;;13.52;71.27;102285.03;1261138;23;602;-74
2022/12/02 03:58:33;;;;;;;;;;;;;;;13.50;70.83;102282.44;1261187;23;1942;-74
2022/12/02 03:59:23;;;;;;;;;;;;;;;13.50;70.87;102271.72;1261225;23;619;-74
2022/12/02 04:00:14;;;;;;;;;;;;;;;13.52;70.90;102279.69;1261341;23;658;-74
2022/12/02 04:01:04;;;;;;;;;;;;;;;13.50;70.83;102268.19;1261209;23;727;-74
2022/12/02 04:01:55;;;;;;;;;;;;;;;13.49;70.89;102261.09;1261153;23;614;-74
2022/12/02 04:02:45;;;;;;;;;;;;;;;13.52;70.94;102268.97;1261320;23;637;-74
2022/12/02 04:03:35;;;;;;;;;;;;;;;13.50;71.39;102274.41;1261162;23;620;-74
2022/12/02 04:04:26;;;;;;;;;;;;;;;13.51;71.52;102276.13;1261370;23;649;-74
2022/12/02 04:05:16;;;;;;;;;;;;;;;13.52;70.78;102268.97;1261182;23;930;-74
2022/12/02 04:06:07;;;;;;;;;;;;;;;13.53;70.80;102273.38;1261229;23;697;-73
2022/12/02 04:06:57;;;;;;;;;;;;;;;13.51;71.35;102269.91;1261306;23;700;-74
2022/12/02 04:07:47;;;;;;;;;;;;;;;13.50;70.77;102271.72;1261477;23;594;-74
2022/12/02 04:08:38;;;;;;;;;;;;;;;13.50;70.72;102269.06;1261226;23;634;-74
2022/12/02 04:09:28;;;;;;;;;;;;;;;13.53;70.74;102276.06;1261016;23;645;-74
2022/12/02 04:10:19;;;;;;;;;;;;;;;13.50;71.36;102270.88;1261299;23;666;-74
2022/12/02 04:11:09;;;;;;;;;;;;;;;13.50;70.72;102270.88;1261261;23;630;-74
2022/12/02 04:12:00;;;;;;;;;;;;;;;13.49;70.76;102272.69;1261161;23;665;-74
2022/12/02 04:12:50;;;;;;;;;;;;;;;13.48;70.56;102268.25;1261228;23;689;-74
2022/12/02 04:13:40;;;;;;;;;;;;;;;13.45;70.84;102267.56;1261285;23;1047;-74
2022/12/02 04:14:31;;;;;;;;;;;;;;;13.44;71.37;102266.69;1262041;23;644;-74
2022/12/02 04:15:21;;;;;;;;;;;;;;;13.42;71.16;102270.44;1262246;23;629;-74
2022/12/02 04:16:12;;;;;;;;;;;;;;;13.43;71.55;102258.78;1256574;23;696;-74
2022/12/02 04:17:02;;;;;;;;;;;;;;;13.42;71.44;102257.91;1255762;23;638;-74
2022/12/02 04:17:52;;;;;;;;;;;;;;;13.43;71.01;102261.44;1261049;23;662;-74
2022/12/02 04:18:43;;;;;;;;;;;;;;;13.43;71.48;102253.41;1261130;23;1920;-74
2022/12/02 04:19:33;;;;;;;;;;;;;;;13.42;71.77;102262.41;1261214;23;618;-74
2022/12/02 04:20:24;;;;;;;;;;;;;;;13.43;71.48;102256.97;1261416;23;618;-74
2022/12/02 04:21:14;;;;;;;;;;;;;;;13.44;71.43;102255.97;1262103;23;756;-74
2022/12/02 04:22:05;;;;;;;;;;;;;;;13.44;71.41;102245.28;1260660;23;669;-74
2022/12/02 04:22:55;;;;;;;;;;;;;;;13.43;71.30;102254.28;1261261;23;645;-74
2022/12/02 04:23:45;;;;;;;;;;;;;;;13.41;71.83;102249.97;1261111;23;622;-74
2022/12/02 04:24:36;;;;;;;;;;;;;;;13.44;70.98;102252.44;1261959;23;621;-74
2022/12/02 04:25:26;;;;;;;;;;;;;;;13.43;70.88;102240.91;1261090;23;637;-73
2022/12/02 04:26:17;;;;;;;;;;;;;;;13.43;71.62;102253.41;1261196;23;614;-74
2022/12/02 04:27:07;;;;;;;;;;;;;;;13.42;71.75;102240.97;1261246;23;642;-74
2022/12/02 04:27:57;;;;;;;;;;;;;;;13.42;70.92;102240.97;1261346;23;654;-74
2022/12/02 04:28:48;;;;;;;;;;;;;;;13.42;71.01;102249.00;1261194;23;565;-74
2022/12/02 04:29:38;;;;;;;;;;;;;;;13.44;71.43;102249.75;1261185;23;682;-74